Airport View

Enter ICAO identifier to see the current METAR for that AWOS.

KFNL for example

KSDY 231715Z AUTO 12006KT 10SM CLR A3017 RMK AO1

23 Jul 2014 17:34

Frequency: 119.275

Phone: 406-482-7323

Other Area AWOS: KISN - KS25 - KGDV - KPO1

TAF KSDY 231134Z 2312/2412 VRB04KT P6SM SCT150 FM231700 14014G22KT P6SM SCT250 FM240300 13012G18KT P6SM SCT070 BKN250 FM240800 13007KT P6SM BKN200 AMD LTD TO CLD VIS AND WIND